Time;durP1;ratioP1;P1;durP2;ratioP2;P2;SDS_P1;SDS_P2;PMS_P1;PMS_P2;Temp;Humidity;BMP_temperature;BMP_pressure;BME280_temperature;BME280_humidity;BME280_pressure;Samples;Min_cycle;Max_cycle;Signal;HPM_P1;HPM_P2
2022/03/28 00:02:10;;;;;;;13.73;3.60;;;;;;;9.09;75.70;102898.63;5097187;28;20027;-79
2022/03/28 00:04:35;;;;;;;16.95;2.97;;;;;;;9.08;75.64;102897.75;5113227;27;20107;-79
2022/03/28 00:07:01;;;;;;;15.10;2.50;;;;;;;9.08;75.63;102896.88;5100592;28;20343;-79
2022/03/28 00:09:26;;;;;;;9.57;2.75;;;;;;;9.08;75.72;102891.63;5135208;27;20081;-79
2022/03/28 00:11:51;;;;;;;12.40;2.80;;;;;;;9.08;75.37;102891.63;5103337;28;20036;-79
2022/03/28 00:14:17;;;;;;;9.45;2.70;;;;;;;9.07;75.43;102895.16;5102666;28;20039;-79
2022/03/28 00:16:42;;;;;;;14.68;3.50;;;;;;;9.01;75.84;102886.44;5086949;28;20247;-80
2022/03/28 00:19:08;;;;;;;10.68;3.15;;;;;;;8.98;76.01;102881.19;5122429;28;20031;-79
2022/03/28 00:21:33;;;;;;;12.63;3.40;;;;;;;8.95;76.11;102886.44;5125897;27;20039;-79
2022/03/28 00:23:58;;;;;;;11.93;2.40;;;;;;;8.96;76.06;102885.56;5112405;28;20031;-80
2022/03/28 00:26:24;;;;;;;12.23;2.83;;;;;;;8.96;75.73;102882.94;5114334;28;20282;-79
2022/03/28 00:28:49;;;;;;;10.82;2.50;;;;;;;8.99;75.49;102887.31;5110972;28;20043;-79
2022/03/28 00:31:15;;;;;;;12.00;3.30;;;;;;;8.99;75.45;102879.47;5124920;27;20043;-79
2022/03/28 00:33:41;;;;;;;12.77;2.85;;;;;;;8.99;75.63;102882.09;5107018;28;20043;-79
2022/03/28 00:36:06;;;;;;;15.20;3.00;;;;;;;8.97;75.58;102884.69;5105935;28;20039;-79
2022/03/28 00:38:32;;;;;;;14.30;2.72;;;;;;;8.95;75.52;102875.09;5119179;28;20357;-79
2022/03/28 00:40:58;;;;;;;15.23;2.78;;;;;;;8.94;75.44;102870.78;5118952;27;20099;-79
2022/03/28 00:43:23;;;;;;;14.07;3.25;;;;;;;8.93;75.54;102863.78;5082847;28;20059;-79
2022/03/28 00:45:49;;;;;;;9.80;3.13;;;;;;;8.92;75.59;102864.69;5119700;27;20031;-79
2022/03/28 00:48:14;;;;;;;15.07;3.25;;;;;;;8.90;75.35;102851.63;5117633;27;20038;-79
2022/03/28 00:50:41;;;;;;;11.35;2.50;;;;;;;8.91;75.15;102855.09;5084079;28;20042;-80
2022/03/28 00:53:12;;;;;;;9.48;2.60;;;;;;;8.91;74.99;102857.69;5132028;27;20242;-79
2022/03/28 00:55:38;;;;;;;13.05;2.75;;;;;;;8.88;75.20;102855.09;5097838;27;20022;-79
2022/03/28 00:58:03;;;;;;;11.00;3.08;;;;;;;8.85;75.07;102853.34;5119012;28;20119;-79
2022/03/28 01:00:29;;;;;;;17.48;3.65;;;;;;;8.79;75.20;102841.16;5083054;27;20036;-79
2022/03/28 01:02:56;;;;;;;14.02;3.15;;;;;;;8.76;75.50;102845.53;5085055;28;20054;-79
2022/03/28 01:05:22;;;;;;;11.73;3.08;;;;;;;8.73;75.43;102838.59;5118543;28;20040;-79
2022/03/28 01:07:47;;;;;;;15.15;3.00;;;;;;;8.71;75.60;102835.06;5118861;28;20049;-79
2022/03/28 01:10:13;;;;;;;18.42;3.60;;;;;;;8.65;75.65;102829.88;5082671;28;20043;-79
2022/03/28 01:12:42;;;;;;;18.23;3.72;;;;;;;8.56;75.84;102822.91;5101591;28;20325;-79
2022/03/28 01:15:15;;;;;;;18.25;3.08;;;;;;;8.56;76.31;102829.88;5115679;28;20241;-79
2022/03/28 01:20:30;;;;;;;10.35;3.00;;;;;;;8.57;75.86;102818.56;5118065;28;20038;-79
2022/03/28 01:22:55;;;;;;;9.27;2.38;;;;;;;8.56;75.88;102820.28;5100153;28;20035;-79
2022/03/28 01:25:24;;;;;;;13.95;3.88;;;;;;;8.57;75.89;102823.78;5099667;28;20090;-79
2022/03/28 01:27:52;;;;;;;8.13;2.53;;;;;;;8.57;75.54;102821.19;5100386;28;20058;-79
2022/03/28 01:30:22;;;;;;;18.00;3.57;;;;;;;8.58;75.38;102821.16;5115924;28;20063;-79
2022/03/28 01:32:54;;;;;;;10.43;2.97;;;;;;;8.58;75.32;102818.53;5120052;27;20119;-79
2022/03/28 01:35:37;;;;;;;15.25;2.92;;;;;;;8.57;75.14;102815.97;5099472;28;20028;-79
2022/03/28 01:38:07;;;;;;;13.73;2.60;;;;;;;8.51;75.30;102814.19;5114071;28;20063;-79
2022/03/28 01:40:34;;;;;;;18.65;3.90;;;;;;;8.42;75.49;102808.97;5133021;27;20058;-79
2022/03/28 01:43:00;;;;;;;7.82;2.85;;;;;;;8.32;75.77;102805.47;5099570;28;20039;-79
2022/03/28 01:45:26;;;;;;;14.43;3.38;;;;;;;8.32;75.99;102802.00;5080557;28;20059;-79
2022/03/28 01:47:52;;;;;;;8.30;3.03;;;;;;;8.31;76.05;102802.84;5118135;27;20093;-79
2022/03/28 01:50:18;;;;;;;12.13;3.03;;;;;;;8.27;76.01;102796.75;5098817;28;20046;-79
2022/03/28 01:52:44;;;;;;;9.18;2.55;;;;;;;8.30;75.88;102799.38;5099066;28;20035;-79
2022/03/28 01:55:10;;;;;;;12.23;2.53;;;;;;;8.29;75.81;102789.81;5099230;28;20066;-79
2022/03/28 01:57:37;;;;;;;16.60;2.97;;;;;;;8.25;76.00;102788.94;5117612;27;20276;-79
2022/03/28 02:00:06;;;;;;;12.43;3.00;;;;;;;8.27;75.93;102788.94;5117851;28;20115;-79
2022/03/28 02:02:31;;;;;;;6.68;2.38;;;;;;;8.27;75.88;102783.72;5116720;28;20058;-79
2022/03/28 02:04:57;;;;;;;16.58;3.13;;;;;;;8.29;75.53;102789.81;5081990;28;20025;-79
2022/03/28 02:07:22;;;;;;;10.82;2.83;;;;;;;8.29;75.63;102789.81;5117283;28;20028;-79
2022/03/28 02:09:48;;;;;;;10.13;3.00;;;;;;;8.30;75.37;102780.25;5082083;28;20032;-79
2022/03/28 02:12:13;;;;;;;11.63;3.33;;;;;;;8.29;75.17;102789.81;5081527;28;20032;-79
2022/03/28 02:14:39;;;;;;;13.70;2.97;;;;;;;8.29;75.08;102784.56;5101722;28;20037;-79
2022/03/28 02:17:04;;;;;;;15.40;3.75;;;;;;;8.27;75.04;102771.53;5117368;28;20534;-79
2022/03/28 02:19:30;;;;;;;14.88;4.10;;;;;;;8.20;75.39;102774.13;5110811;27;20067;-79
2022/03/28 02:21:55;;;;;;;9.00;2.65;;;;;;;8.18;75.25;102771.53;5081060;28;20031;-79
2022/03/28 02:24:20;;;;;;;11.95;3.33;;;;;;;8.16;75.60;102768.03;5113156;28;20050;-79
2022/03/28 02:26:46;;;;;;;10.30;2.60;;;;;;;8.17;75.50;102768.94;5117748;27;20031;-79
2022/03/28 02:29:11;;;;;;;12.13;2.97;;;;;;;8.16;75.49;102767.19;5116577;28;20027;-80
2022/03/28 02:31:37;;;;;;;14.77;3.35;;;;;;;8.16;75.33;102762.81;5098606;28;20035;-79
2022/03/28 02:34:02;;;;;;;13.13;3.47;;;;;;;8.17;75.17;102750.66;5113153;27;20031;-79
2022/03/28 02:36:28;;;;;;;16.92;3.58;;;;;;;8.14;75.13;102754.13;5081163;28;20039;-79
2022/03/28 02:38:53;;;;;;;12.85;3.55;;;;;;;8.11;75.32;102753.25;5098426;28;20043;-79
2022/03/28 02:41:18;;;;;;;11.23;3.10;;;;;;;8.08;75.45;102762.84;5091574;28;20433;-79
2022/03/28 02:43:44;;;;;;;13.82;3.17;;;;;;;8.08;75.41;102755.00;5116849;28;20040;-79
2022/03/28 02:46:09;;;;;;;13.55;3.20;;;;;;;8.07;75.21;102747.16;5119010;27;20258;-79
2022/03/28 02:48:35;;;;;;;10.48;2.92;;;;;;;8.06;75.12;102743.69;5080450;28;20035;-79
2022/03/28 02:51:00;;;;;;;14.23;3.20;;;;;;;8.04;75.32;102735.00;5081474;28;20080;-79
2022/03/28 02:53:26;;;;;;;14.93;3.42;;;;;;;8.02;75.47;102735.84;5117514;27;20107;-79
2022/03/28 02:55:51;;;;;;;11.90;2.88;;;;;;;7.95;75.55;102723.69;5117730;27;20032;-79
2022/03/28 02:58:16;;;;;;;13.68;3.33;;;;;;;7.92;75.88;102726.31;5096884;28;20051;-79
2022/03/28 03:00:42;;;;;;;14.27;3.33;;;;;;;7.88;75.93;102721.06;5098884;28;20070;-80
2022/03/28 03:03:07;;;;;;;13.27;3.67;;;;;;;7.83;76.15;102716.72;5081101;28;20314;-80
2022/03/28 03:05:33;;;;;;;17.20;3.75;;;;;;;7.81;76.11;102718.47;5115225;28;20057;-80
2022/03/28 03:07:58;;;;;;;11.25;3.28;;;;;;;7.80;76.31;102722.78;5116359;28;20054;-80
2022/03/28 03:10:23;;;;;;;11.20;2.97;;;;;;;7.80;76.35;102717.56;5115205;28;20129;-80
2022/03/28 03:12:49;;;;;;;11.05;3.25;;;;;;;7.81;76.28;102713.25;5131442;27;20032;-81
2022/03/28 03:15:14;;;;;;;14.10;3.10;;;;;;;7.79;76.25;102715.84;5079717;28;20031;-81
2022/03/28 03:17:40;;;;;;;12.27;3.20;;;;;;;7.79;76.30;102710.63;5099975;28;20035;-80
2022/03/28 03:20:06;;;;;;;15.20;3.47;;;;;;;7.81;76.02;102714.13;5118454;27;20031;-81
2022/03/28 03:22:32;;;;;;;14.43;3.55;;;;;;;7.81;76.01;102708.91;5114748;28;20472;-81
2022/03/28 03:24:57;;;;;;;16.27;3.60;;;;;;;7.78;75.97;102702.81;5117449;27;20130;-81
2022/03/28 03:27:23;;;;;;;15.10;4.38;;;;;;;7.71;76.35;102699.31;5096287;28;20054;-80
2022/03/28 03:29:49;;;;;;;14.50;4.05;;;;;;;7.68;76.38;102702.78;5117234;27;20098;-80
2022/03/28 03:32:14;;;;;;;13.70;3.47;;;;;;;7.65;76.58;102702.78;5096754;28;20046;-81
2022/03/28 03:34:40;;;;;;;10.90;3.05;;;;;;;7.64;76.55;102705.38;5097513;28;20026;-80
2022/03/28 03:37:07;;;;;;;9.05;2.97;;;;;;;7.64;76.61;102705.38;5115929;28;20106;-81
2022/03/28 03:39:35;;;;;;;12.55;3.50;;;;;;;7.64;76.79;102700.16;5125546;27;20223;-81
2022/03/28 03:42:01;;;;;;;10.95;2.97;;;;;;;7.64;76.44;102703.66;5114622;28;20050;-80
2022/03/28 03:44:27;;;;;;;11.15;3.45;;;;;;;7.66;76.34;102694.09;5115323;28;20039;-81
2022/03/28 03:46:52;;;;;;;11.25;3.28;;;;;;;7.66;76.17;102693.25;5098785;28;20040;-81
2022/03/28 03:49:18;;;;;;;9.93;3.92;;;;;;;7.63;76.44;102694.09;5097844;28;20028;-81
2022/03/28 03:51:44;;;;;;;17.17;3.92;;;;;;;7.64;76.44;102694.94;5099283;28;20823;-81
2022/03/28 03:54:09;;;;;;;13.40;2.85;;;;;;;7.63;76.33;102681.06;5118034;28;20073;-81
2022/03/28 03:56:35;;;;;;;12.23;3.90;;;;;;;7.64;76.28;102685.41;5101520;28;20078;-81
2022/03/28 03:59:00;;;;;;;9.43;3.42;;;;;;;7.61;76.14;102672.38;5120992;28;20310;-81
2022/03/28 04:01:26;;;;;;;15.73;4.05;;;;;;;7.61;76.21;102674.13;5117725;28;20027;-81
2022/03/28 04:03:55;;;;;;;12.57;4.18;;;;;;;7.62;76.17;102673.22;5142125;28;20043;-81
2022/03/28 04:06:20;;;;;;;14.02;3.60;;;;;;;7.60;76.09;102670.59;5105973;28;20227;-81
2022/03/28 04:08:46;;;;;;;16.52;4.22;;;;;;;7.60;76.04;102674.97;5121294;28;20020;-81
2022/03/28 04:11:11;;;;;;;20.50;4.20;;;;;;;7.56;75.94;102666.28;5102783;28;20024;-81
2022/03/28 04:13:37;;;;;;;14.52;4.28;;;;;;;7.47;76.55;102661.91;5102939;28;20043;-80
2022/03/28 04:16:04;;;;;;;16.73;4.28;;;;;;;7.45;76.78;102671.47;5099406;28;20200;-80
2022/03/28 04:18:29;;;;;;;14.60;4.38;;;;;;;7.42;76.58;102675.81;5115431;28;20331;-81
2022/03/28 04:20:55;;;;;;;10.00;3.38;;;;;;;7.42;76.74;102679.31;5097864;28;20045;-80
2022/03/28 04:23:22;;;;;;;8.25;4.03;;;;;;;7.42;76.61;102683.63;5096452;28;20032;-81
2022/03/28 04:25:47;;;;;;;10.63;4.07;;;;;;;7.43;76.45;102673.22;5115376;28;20035;-80
2022/03/28 04:28:13;;;;;;;8.82;3.33;;;;;;;7.45;76.51;102683.63;5116558;28;20038;-81
2022/03/28 04:30:38;;;;;;;13.93;4.40;;;;;;;7.44;76.36;102679.28;5115204;28;20059;-80
2022/03/28 04:33:07;;;;;;;12.55;4.38;;;;;;;7.44;76.25;102677.56;5080320;28;20043;-81
2022/03/28 04:35:33;;;;;;;14.13;4.53;;;;;;;7.44;76.34;102672.34;5097968;28;20052;-80
2022/03/28 04:37:59;;;;;;;13.77;4.20;;;;;;;7.42;76.25;102674.09;5115080;28;20066;-80
2022/03/28 04:40:24;;;;;;;15.05;4.50;;;;;;;7.40;76.22;102670.59;5095590;28;20455;-81
2022/03/28 04:42:50;;;;;;;10.23;4.55;;;;;;;7.39;76.42;102663.66;5078770;28;20323;-80
2022/03/28 04:45:15;;;;;;;18.77;5.15;;;;;;;7.37;76.45;102665.38;5114122;28;20038;-80
2022/03/28 04:47:41;;;;;;;18.88;5.00;;;;;;;7.33;76.65;102661.03;5114590;28;20043;-80
2022/03/28 04:50:07;;;;;;;15.68;6.25;;;;;;;7.22;76.99;102648.00;5095923;28;20023;-80
2022/03/28 04:52:33;;;;;;;13.15;5.72;;;;;;;7.12;77.64;102643.59;5118365;27;20042;-80
2022/03/28 04:54:58;;;;;;;13.40;4.68;;;;;;;6.94;78.41;102636.59;5100688;28;20039;-80
2022/03/28 04:57:24;;;;;;;20.70;5.10;;;;;;;6.88;78.98;102641.81;5083574;28;20422;-80
2022/03/28 04:59:49;;;;;;;10.52;4.85;;;;;;;6.86;78.89;102636.59;5101878;28;20042;-81
2022/03/28 05:02:15;;;;;;;20.50;6.15;;;;;;;6.88;78.88;102639.19;5101075;28;20081;-80
2022/03/28 05:04:41;;;;;;;12.23;5.43;;;;;;;6.93;78.71;102642.69;5118117;28;20035;-80
2022/03/28 05:07:07;;;;;;;14.32;5.38;;;;;;;6.97;78.61;102641.84;5098937;28;20223;-80
2022/03/28 05:09:32;;;;;;;14.75;4.57;;;;;;;7.01;78.60;102647.94;5081273;28;20043;-81
2022/03/28 05:11:58;;;;;;;13.23;5.45;;;;;;;7.06;78.07;102646.22;5116521;27;20035;-80
2022/03/28 05:14:24;;;;;;;9.13;4.93;;;;;;;7.08;77.88;102642.72;5096801;28;20039;-80
2022/03/28 05:16:49;;;;;;;9.82;4.70;;;;;;;7.08;77.72;102636.66;5101106;27;20102;-80
2022/03/28 05:19:15;;;;;;;13.95;4.75;;;;;;;7.09;77.42;102641.88;5097818;28;20296;-81
2022/03/28 05:21:41;;;;;;;14.05;5.10;;;;;;;7.09;77.45;102644.47;5115749;27;20035;-80
2022/03/28 05:24:07;;;;;;;12.40;5.53;;;;;;;7.10;77.18;102643.59;5098836;28;20043;-81
2022/03/28 05:26:32;;;;;;;11.82;5.50;;;;;;;7.13;76.96;102655.78;5097422;27;20035;-80
2022/03/28 05:28:57;;;;;;;12.43;4.90;;;;;;;7.11;76.73;102647.97;5100570;28;20093;-80
2022/03/28 05:31:23;;;;;;;13.55;5.13;;;;;;;7.13;76.44;102645.34;5097318;28;20066;-81
2022/03/28 05:33:48;;;;;;;7.03;4.50;;;;;;;7.10;76.28;102638.38;5100823;28;20039;-80
2022/03/28 05:36:14;;;;;;;10.60;5.15;;;;;;;7.09;76.19;102636.66;5105259;28;20134;-81
2022/03/28 05:38:42;;;;;;;11.75;4.90;;;;;;;7.09;76.03;102635.78;5115543;27;20387;-80
2022/03/28 05:41:08;;;;;;;13.70;5.70;;;;;;;7.08;75.85;102632.31;5081233;28;20024;-81
2022/03/28 05:43:34;;;;;;;10.88;4.88;;;;;;;7.06;75.80;102626.22;5114786;28;20129;-81
2022/03/28 05:46:00;;;;;;;12.30;5.70;;;;;;;7.06;75.98;102628.84;5115935;28;20133;-81
2022/03/28 05:48:25;;;;;;;14.88;5.63;;;;;;;7.05;75.89;102621.88;5098826;28;20339;-81
2022/03/28 05:50:51;;;;;;;11.95;5.63;;;;;;;7.06;76.00;102622.75;5095640;28;20039;-80
2022/03/28 05:53:16;;;;;;;12.55;6.43;;;;;;;7.05;76.01;102621.88;5114332;27;20101;-81
2022/03/28 05:55:43;;;;;;;13.35;6.35;;;;;;;7.05;75.74;102621.00;5118116;27;20197;-80
2022/03/28 05:58:09;;;;;;;11.27;5.88;;;;;;;7.05;75.91;102619.25;5097676;28;20097;-80
2022/03/28 06:00:36;;;;;;;11.93;5.85;;;;;;;7.06;75.83;102622.75;5113183;28;20407;-80
2022/03/28 06:03:02;;;;;;;8.50;5.18;;;;;;;7.06;75.82;102620.16;5115167;27;20335;-80
2022/03/28 06:05:27;;;;;;;10.73;5.68;;;;;;;7.06;75.74;102625.38;5078955;28;20027;-80
2022/03/28 06:07:53;;;;;;;12.20;6.38;;;;;;;7.05;75.58;102619.25;5115435;27;20105;-81
2022/03/28 06:10:18;;;;;;;10.40;5.88;;;;;;;7.06;75.71;102618.41;5114204;28;20417;-81
2022/03/28 06:12:44;;;;;;;17.60;5.95;;;;;;;7.06;75.53;102622.75;5096340;28;20040;-81
2022/03/28 06:15:09;;;;;;;9.68;5.80;;;;;;;7.05;75.50;102619.25;5096502;28;20038;-80
2022/03/28 06:17:35;;;;;;;10.13;5.78;;;;;;;7.05;75.36;102615.78;5099200;27;20044;-80
2022/03/28 06:20:04;;;;;;;12.93;6.55;;;;;;;7.06;75.44;102614.94;5115626;28;20055;-80
2022/03/28 06:22:30;;;;;;;13.13;5.97;;;;;;;7.06;75.19;102617.56;5118089;27;20046;-80
2022/03/28 06:24:56;;;;;;;14.02;6.15;;;;;;;7.05;75.50;102614.06;5097567;28;20031;-80
2022/03/28 06:27:24;;;;;;;9.63;5.80;;;;;;;7.05;75.49;102614.06;5095588;28;20066;-81
2022/03/28 06:29:50;;;;;;;14.13;5.63;;;;;;;7.05;75.38;102610.59;5097211;28;20234;-80
2022/03/28 06:32:16;;;;;;;10.90;5.15;;;;;;;7.07;75.46;102614.06;5110629;28;20051;-80
2022/03/28 06:34:41;;;;;;;8.55;5.57;;;;;;;7.07;75.49;102620.13;5113114;28;20036;-80
2022/03/28 06:37:07;;;;;;;14.65;5.95;;;;;;;7.07;75.60;102616.66;5079679;28;20035;-81
2022/03/28 06:39:34;;;;;;;8.15;5.55;;;;;;;7.08;75.60;102615.81;5095714;28;20099;-80
2022/03/28 06:42:00;;;;;;;18.67;8.02;;;;;;;6.99;78.57;102616.66;5077835;28;20255;-80
2022/03/28 06:44:25;;;;;;;13.80;6.93;;;;;;;6.98;78.44;102616.66;5095156;28;20152;-80
2022/03/28 06:46:51;;;;;;;16.60;7.43;;;;;;;6.97;78.63;102621.00;5098384;28;20050;-81
2022/03/28 06:49:16;;;;;;;12.88;7.55;;;;;;;6.95;78.86;102614.91;5113411;28;20095;-81
2022/03/28 06:51:42;;;;;;;16.05;7.22;;;;;;;6.94;79.16;102609.69;5093124;28;20036;-80
2022/03/28 06:54:08;;;;;;;17.90;8.25;;;;;;;6.95;79.40;102609.72;5112370;27;20069;-80
2022/03/28 06:56:36;;;;;;;17.70;8.05;;;;;;;6.90;79.88;102604.47;5096309;28;20040;-80
2022/03/28 06:59:02;;;;;;;12.82;8.10;;;;;;;6.91;79.94;102601.00;5092911;28;20059;-80
2022/03/28 07:01:27;;;;;;;14.23;7.50;;;;;;;6.89;80.39;102600.16;5095026;28;20166;-81
2022/03/28 07:03:54;;;;;;;10.95;7.95;;;;;;;6.89;80.33;102609.66;5087080;28;20331;-81
2022/03/28 07:06:20;;;;;;;10.10;7.10;;;;;;;6.92;80.20;102605.34;5104278;28;20043;-81
2022/03/28 07:08:46;;;;;;;12.32;7.45;;;;;;;6.87;81.16;102606.19;5076555;28;20036;-81
2022/03/28 07:11:11;;;;;;;16.00;8.65;;;;;;;6.87;81.09;102595.78;5113631;28;20331;-81
2022/03/28 07:13:37;;;;;;;15.45;8.10;;;;;;;6.88;81.15;102600.13;5112919;28;20084;-80
2022/03/28 07:16:02;;;;;;;21.92;8.85;;;;;;;6.87;81.49;102599.25;5094109;28;20031;-80
2022/03/28 07:18:28;;;;;;;15.68;8.00;;;;;;;6.88;81.51;102601.00;5092653;28;20262;-80
2022/03/28 07:20:53;;;;;;;13.13;8.65;;;;;;;6.89;81.36;102592.31;5110473;28;20042;-80
2022/03/28 07:23:19;;;;;;;11.52;7.55;;;;;;;6.89;81.83;102589.72;5091095;28;20412;-80
2022/03/28 07:25:46;;;;;;;15.27;8.38;;;;;;;6.89;82.00;102588.84;5095733;28;20031;-80
2022/03/28 07:28:13;;;;;;;15.93;8.70;;;;;;;6.86;82.57;102586.25;5077024;28;20031;-80
2022/03/28 07:30:40;;;;;;;12.18;7.50;;;;;;;6.90;82.31;102590.59;5080452;28;20027;-80
2022/03/28 07:33:06;;;;;;;16.58;8.40;;;;;;;6.90;82.34;102595.78;5107958;28;20047;-80
2022/03/28 07:35:36;;;;;;;16.20;8.90;;;;;;;6.87;82.21;102588.81;5112940;27;20263;-80
2022/03/28 07:38:06;;;;;;;19.58;9.60;;;;;;;6.89;82.59;102588.84;5095401;28;20031;-80
2022/03/28 07:40:31;;;;;;;12.13;7.95;;;;;;;6.91;82.62;102588.00;5113951;27;20346;-80
2022/03/28 07:42:56;;;;;;;21.08;9.32;;;;;;;6.98;82.59;102583.63;5127883;27;20071;-80
2022/03/28 07:45:23;;;;;;;17.55;9.70;;;;;;;6.95;82.94;102588.88;5112489;28;20204;-80
2022/03/28 07:47:49;;;;;;;19.35;10.43;;;;;;;6.93;83.25;102577.56;5077261;28;20386;-80
2022/03/28 07:50:15;;;;;;;18.15;10.25;;;;;;;6.95;83.50;102577.56;5095170;28;20047;-80
2022/03/28 07:52:41;;;;;;;16.00;9.60;;;;;;;6.96;83.32;102579.31;5089873;28;20227;-80
2022/03/28 07:55:08;;;;;;;18.40;10.68;;;;;;;6.97;83.44;102581.91;5092626;28;20055;-80
2022/03/28 07:57:35;;;;;;;15.25;10.10;;;;;;;6.93;83.93;102580.19;5127596;27;20279;-80
2022/03/28 08:00:01;;;;;;;15.32;9.60;;;;;;;6.97;83.46;102576.72;5113540;28;20105;-80
2022/03/28 08:02:26;;;;;;;14.95;8.77;;;;;;;7.01;83.34;102574.97;5124017;27;20035;-80
2022/03/28 08:04:51;;;;;;;14.30;10.20;;;;;;;6.96;83.51;102568.88;5127024;27;20031;-80
2022/03/28 08:07:17;;;;;;;17.55;9.93;;;;;;;7.00;83.27;102576.69;5104808;28;20032;-80
2022/03/28 08:09:43;;;;;;;18.95;9.70;;;;;;;6.99;83.41;102580.19;5098728;28;20535;-81
2022/03/28 08:12:09;;;;;;;16.63;10.00;;;;;;;7.03;83.58;102578.47;5113980;28;20035;-81
2022/03/28 08:14:36;;;;;;;16.80;10.05;;;;;;;7.03;83.82;102573.25;5113089;28;20054;-80
2022/03/28 08:17:03;;;;;;;16.30;10.20;;;;;;;6.98;84.02;102570.63;5112911;28;20039;-80
2022/03/28 08:19:28;;;;;;;17.98;10.75;;;;;;;6.97;84.09;102581.91;5111045;28;20039;-81
2022/03/28 08:21:54;;;;;;;17.05;10.20;;;;;;;7.02;84.05;102580.19;5094402;28;20347;-80
2022/03/28 08:24:20;;;;;;;15.30;9.40;;;;;;;7.07;83.94;102575.84;5091005;28;20073;-81
2022/03/28 08:26:46;;;;;;;16.70;10.23;;;;;;;7.09;84.24;102571.53;5092279;28;20357;-80
2022/03/28 08:29:12;;;;;;;15.60;10.02;;;;;;;7.10;84.25;102568.03;5096827;28;20027;-81
2022/03/28 08:31:37;;;;;;;19.38;10.55;;;;;;;7.17;84.29;102571.53;5096386;28;20116;-81
2022/03/28 08:34:03;;;;;;;14.65;9.85;;;;;;;7.20;83.95;102562.84;5097194;28;20035;-81
2022/03/28 08:36:28;;;;;;;14.05;9.88;;;;;;;7.16;84.24;102559.34;5100179;28;20059;-80
2022/03/28 08:38:53;;;;;;;20.13;10.77;;;;;;;7.15;84.10;102547.22;5111488;27;20084;-80
2022/03/28 08:41:20;;;;;;;22.13;10.25;;;;;;;7.21;84.02;102547.22;5111909;27;20070;-81
2022/03/28 08:43:46;;;;;;;20.65;10.15;;;;;;;7.30;84.02;102544.59;5099789;28;20351;-80
2022/03/28 08:46:15;;;;;;;21.42;10.60;;;;;;;7.35;84.05;102542.00;5117297;27;20065;-80
2022/03/28 08:48:41;;;;;;;17.73;9.98;;;;;;;7.38;84.12;102541.13;5101055;28;20043;-80
2022/03/28 08:51:12;;;;;;;19.25;10.85;;;;;;;7.40;83.85;102528.97;5116358;27;20050;-80
2022/03/28 08:53:39;;;;;;;19.25;10.60;;;;;;;7.45;84.02;102541.13;5127051;27;20169;-81
2022/03/28 08:56:07;;;;;;;19.83;10.70;;;;;;;7.48;84.05;102545.47;5129797;27;20272;-80
2022/03/28 08:58:33;;;;;;;17.83;10.82;;;;;;;7.54;83.97;102539.41;5123411;27;20038;-80
2022/03/28 09:00:59;;;;;;;29.52;12.05;;;;;;;7.57;83.80;102542.00;5106495;27;20300;-81
2022/03/28 09:04:05;;;;;;;26.15;11.30;;;;;;;7.62;83.66;102537.63;5103841;28;20047;-80
2022/03/28 09:06:42;;;;;;;20.85;11.23;;;;;;;7.64;83.89;102543.72;5104371;27;20119;-80
2022/03/28 09:09:16;;;;;;;16.15;10.63;;;;;;;7.74;83.64;102539.38;5088958;28;20032;-80
2022/03/28 09:11:43;;;;;;;21.70;10.48;;;;;;;7.78;83.41;102544.56;5110915;27;20059;-81
2022/03/28 09:14:30;;;;;;;21.23;10.88;;;;;;;7.84;83.19;102543.69;5114925;27;20343;-81
2022/03/28 09:17:13;;;;;;;16.08;10.02;;;;;;;7.88;83.00;102546.28;5121689;27;20039;-81
2022/03/28 09:19:48;;;;;;;21.60;11.27;;;;;;;7.91;83.11;102539.31;5101443;28;20051;-80
2022/03/28 09:22:20;;;;;;;23.48;11.45;;;;;;;7.95;82.93;102541.03;5100568;27;20302;-80
2022/03/28 09:24:46;;;;;;;19.75;11.95;;;;;;;8.00;82.81;102541.91;5110847;28;20043;-80
2022/03/28 09:27:17;;;;;;;17.08;10.95;;;;;;;8.03;82.65;102537.56;5118396;27;20035;-80
2022/03/28 09:30:10;;;;;;;26.83;11.75;;;;;;;8.06;82.39;102539.31;5121260;27;20066;-81
2022/03/28 09:32:40;;;;;;;17.60;10.55;;;;;;;8.10;81.82;102533.19;5091217;28;20255;-80
2022/03/28 09:35:26;;;;;;;18.73;10.85;;;;;;;8.12;82.01;102531.44;5112030;28;20035;-80
2022/03/28 09:38:05;;;;;;;23.77;11.75;;;;;;;8.19;81.96;102532.28;5091147;28;20364;-81
2022/03/28 09:40:51;;;;;;;27.60;11.57;;;;;;;8.22;82.16;102525.31;5112859;28;20265;-83
2022/03/28 09:43:29;;;;;;;21.52;11.50;;;;;;;8.30;82.08;102516.59;5117696;28;20055;-80
2022/03/28 09:45:56;;;;;;;22.43;11.90;;;;;;;8.34;82.12;102520.91;5111775;28;20055;-80
2022/03/28 09:48:25;;;;;;;21.95;12.13;;;;;;;8.38;82.05;102515.66;5096570;28;20282;-81
2022/03/28 09:51:05;;;;;;;18.83;11.80;;;;;;;8.45;81.64;102513.94;5101333;28;20232;-81
2022/03/28 09:53:39;;;;;;;20.38;11.57;;;;;;;8.47;81.39;102504.34;5119315;28;20492;-81
2022/03/28 09:56:07;;;;;;;18.27;12.02;;;;;;;8.54;81.35;102513.88;5086049;28;20422;-80
2022/03/28 09:58:45;;;;;;;18.83;11.13;;;;;;;8.61;81.18;102507.75;5097629;28;20032;-80
2022/03/28 10:01:23;;;;;;;20.23;11.90;;;;;;;8.69;81.14;102496.38;5109890;28;20081;-81
2022/03/28 10:03:51;;;;;;;21.25;11.40;;;;;;;8.75;80.46;102498.94;5097753;28;20338;-81
2022/03/28 10:06:17;;;;;;;25.00;11.43;;;;;;;8.77;80.16;102492.00;5102201;28;20307;-80
2022/03/28 10:08:43;;;;;;;23.52;11.75;;;;;;;8.86;80.25;102489.31;5093295;28;20425;-80
2022/03/28 10:11:10;;;;;;;16.48;10.85;;;;;;;8.90;80.00;102498.88;5124109;27;20031;-81
2022/03/28 10:13:37;;;;;;;24.10;12.10;;;;;;;8.93;80.23;102488.41;5109510;28;20090;-81
2022/03/28 10:16:04;;;;;;;20.77;12.48;;;;;;;8.98;79.90;102488.34;5086661;28;20027;-81
2022/03/28 10:18:32;;;;;;;20.75;11.70;;;;;;;9.05;80.43;102489.19;5119165;27;20246;-81
2022/03/28 10:21:02;;;;;;;25.58;11.88;;;;;;;9.12;79.63;102488.25;5092730;27;20326;-81
2022/03/28 10:24:08;;;;;;;18.75;10.15;;;;;;;9.18;79.17;102483.81;5085957;28;20046;-81
2022/03/28 10:26:38;;;;;;;22.85;11.55;;;;;;;9.26;79.24;102473.31;5062797;28;20114;-81
2022/03/28 10:29:05;;;;;;;21.70;11.02;;;;;;;9.30;79.12;102472.41;5109202;28;20029;-81
2022/03/28 10:31:34;;;;;;;19.35;10.13;;;;;;;9.38;78.89;102464.47;5109213;28;20038;-81
2022/03/28 10:34:00;;;;;;;19.10;11.53;;;;;;;9.45;78.67;102467.91;5111648;28;20341;-81
2022/03/28 10:36:35;;;;;;;18.50;10.85;;;;;;;9.52;78.39;102459.13;5121869;27;20039;-81
2022/03/28 10:39:33;;;;;;;19.13;11.27;;;;;;;9.57;78.49;102459.94;5130260;27;20039;-80
2022/03/28 10:42:16;;;;;;;23.65;10.93;;;;;;;9.60;78.26;102462.50;5114212;27;20046;-81
2022/03/28 10:45:04;;;;;;;18.23;11.10;;;;;;;9.68;78.44;102455.44;5096391;27;20028;-81
2022/03/28 10:47:49;;;;;;;20.70;12.05;;;;;;;9.76;78.50;102458.84;5091243;28;20031;-81
2022/03/28 10:50:26;;;;;;;19.95;10.38;;;;;;;9.86;78.11;102454.38;5089838;28;20028;-81
2022/03/28 10:53:30;;;;;;;15.20;9.98;;;;;;;9.93;77.59;102444.69;5102318;27;20047;-81
2022/03/28 10:56:00;;;;;;;22.02;11.02;;;;;;;9.99;77.20;102448.09;5109725;28;20064;-81
2022/03/28 10:58:29;;;;;;;23.27;11.48;;;;;;;10.04;76.38;102439.31;5108976;28;20085;-81
2022/03/28 11:01:13;;;;;;;26.20;11.77;;;;;;;10.13;76.12;102447.94;5102026;27;20034;-81
2022/03/28 11:03:40;;;;;;;20.17;10.55;;;;;;;10.21;76.02;102433.88;5114981;27;20039;-81
2022/03/28 11:06:06;;;;;;;18.45;10.20;;;;;;;10.25;75.65;102431.19;5119637;27;20024;-81
2022/03/28 11:08:40;;;;;;;19.80;10.23;;;;;;;10.29;75.40;102432.84;5095716;28;20632;-81
2022/03/28 11:11:21;;;;;;;18.65;11.05;;;;;;;10.34;75.68;102431.06;5068081;28;20215;-81
2022/03/28 11:14:10;;;;;;;23.52;10.10;;;;;;;10.40;75.74;102431.88;5107754;27;20039;-81
2022/03/28 11:16:54;;;;;;;19.58;9.75;;;;;;;10.50;74.83;102421.25;5100780;28;20051;-81
2022/03/28 11:19:31;;;;;;;23.02;9.95;;;;;;;10.57;74.81;102425.50;5110691;28;20031;-81
2022/03/28 11:22:00;;;;;;;27.20;11.60;;;;;;;10.62;74.84;102422.81;5095819;28;20023;-81
2022/03/28 11:24:46;;;;;;;23.10;10.48;;;;;;;10.70;75.03;102417.47;5114524;28;20043;-81
2022/03/28 11:27:14;;;;;;;21.30;9.55;;;;;;;10.80;74.70;102423.41;5109558;28;20074;-81
2022/03/28 11:29:41;;;;;;;27.60;9.82;;;;;;;10.93;73.31;102422.31;5084133;28;20340;-81
2022/03/28 11:32:12;;;;;;;21.25;10.02;;;;;;;10.97;73.40;102417.88;5094244;28;20034;-81